Time;durP1;ratioP1;P1;durP2;ratioP2;P2;SDS_P1;SDS_P2;PMS_P1;PMS_P2;Temp;Humidity;BMP_temperature;BMP_pressure;BME280_temperature;BME280_humidity;BME280_pressure;Samples;Min_cycle;Max_cycle;Signal;HPM_P1;HPM_P2
2023/04/27 00:01:12;;;;;;;4.40;3.27;;;;;;;6.89;100.00;99590.84;6111078;23;20174;-81
2023/04/27 00:03:38;;;;;;;3.90;3.50;;;;;;;6.83;100.00;99581.81;6159970;23;20249;-81
2023/04/27 00:06:07;;;;;;;4.50;3.40;;;;;;;6.86;100.00;99584.06;6135053;23;20186;-80
2023/04/27 00:08:34;;;;;;;4.67;3.80;;;;;;;6.87;100.00;99584.91;6111447;23;20253;-80
2023/04/27 00:11:00;;;;;;;4.47;3.60;;;;;;;6.85;100.00;99592.28;6135403;23;20220;-81
2023/04/27 00:13:27;;;;;;;6.47;3.60;;;;;;;6.84;100.00;99590.63;6111238;23;20441;-82
2023/04/27 00:15:54;;;;;;;4.87;3.57;;;;;;;6.84;100.00;99598.63;6160161;23;20167;-81
2023/04/27 00:18:21;;;;;;;4.03;3.63;;;;;;;6.86;100.00;99591.25;6111039;23;20170;-81
2023/04/27 00:20:48;;;;;;;5.43;3.70;;;;;;;6.81;100.00;99591.03;6135300;23;20193;-81
2023/04/27 00:23:15;;;;;;;4.03;3.60;;;;;;;6.71;100.00;99588.72;6110800;23;20265;-81
2023/04/27 00:25:41;;;;;;;4.33;3.50;;;;;;;6.73;100.00;99588.50;6110786;23;20163;-80
2023/04/27 00:28:08;;;;;;;4.90;3.70;;;;;;;6.64;100.00;99586.00;6134876;23;20176;-81
2023/04/27 00:30:35;;;;;;;5.60;3.40;;;;;;;6.73;100.00;99578.66;6110801;23;20260;-81
2023/04/27 00:33:01;;;;;;;4.87;3.70;;;;;;;6.76;100.00;99591.63;6110649;23;20198;-80
2023/04/27 00:35:28;;;;;;;6.40;3.93;;;;;;;6.63;100.00;99588.84;6135166;23;20193;-81
2023/04/27 00:37:57;;;;;;;4.17;3.70;;;;;;;6.63;100.00;99587.00;6135611;23;20639;-80
2023/04/27 00:40:23;;;;;;;5.27;3.77;;;;;;;6.66;100.00;99582.31;6135544;23;20185;-81
2023/04/27 00:42:51;;;;;;;5.93;4.13;;;;;;;6.68;100.00;99581.09;6135240;23;20171;-81
2023/04/27 00:45:18;;;;;;;4.63;3.73;;;;;;;6.65;100.00;99570.84;6135288;23;20166;-81
2023/04/27 00:47:45;;;;;;;5.13;3.60;;;;;;;6.62;100.00;99574.72;6110728;23;20233;-80
2023/04/27 00:50:11;;;;;;;5.23;3.77;;;;;;;6.54;100.00;99580.19;6134825;23;20269;-81
2023/04/27 00:52:38;;;;;;;5.50;3.90;;;;;;;6.51;100.00;99567.28;6135129;23;20206;-80
2023/04/27 00:55:06;;;;;;;4.33;3.90;;;;;;;6.53;100.00;99569.75;6110758;23;20621;-81
2023/04/27 00:57:33;;;;;;;4.10;3.70;;;;;;;6.54;100.00;99574.88;6134685;23;20174;-80
2023/04/27 01:00:01;;;;;;;4.80;3.73;;;;;;;6.47;100.00;99574.00;6110678;23;20696;-82
2023/04/27 01:02:28;;;;;;;5.03;3.70;;;;;;;6.46;100.00;99571.53;6134712;23;20166;-81
2023/04/27 01:04:56;;;;;;;4.70;4.27;;;;;;;6.46;100.00;99572.38;6134994;23;20171;-84
2023/04/27 01:07:25;;;;;;;4.53;3.83;;;;;;;6.39;100.00;99574.13;6134566;23;20230;-82
2023/04/27 01:09:52;;;;;;;5.40;3.80;;;;;;;6.35;100.00;99577.38;6135166;23;20166;-81
2023/04/27 01:12:19;;;;;;;4.20;3.80;;;;;;;6.33;100.00;99572.28;6110456;23;20197;-81
2023/04/27 01:14:47;;;;;;;5.03;4.00;;;;;;;6.32;100.00;99577.78;6135249;23;20225;-81
2023/04/27 01:17:14;;;;;;;5.13;4.20;;;;;;;6.27;100.00;99580.19;6134601;23;20174;-81
2023/04/27 01:19:41;;;;;;;4.97;4.00;;;;;;;6.23;100.00;99574.44;6135079;23;20169;-81
2023/04/27 01:22:09;;;;;;;4.30;3.90;;;;;;;6.23;100.00;99574.44;6110862;23;20202;-80
2023/04/27 01:24:36;;;;;;;4.70;4.10;;;;;;;6.22;100.00;99564.00;6131224;23;20201;-80
2023/04/27 01:27:04;;;;;;;4.73;4.10;;;;;;;6.18;100.00;99575.03;6164140;23;20189;-81
2023/04/27 01:29:31;;;;;;;5.40;4.50;;;;;;;6.10;100.00;99585.81;6139232;23;20205;-82
2023/04/27 01:31:57;;;;;;;4.70;4.30;;;;;;;6.14;100.00;99575.59;6164189;23;20204;-81
2023/04/27 01:34:24;;;;;;;4.50;4.03;;;;;;;6.10;100.00;99587.66;6164068;23;20240;-80
2023/04/27 01:36:51;;;;;;;4.90;4.40;;;;;;;6.10;100.00;99588.47;6164067;23;20205;-80
2023/04/27 01:39:20;;;;;;;5.63;4.23;;;;;;;6.07;100.00;99583.50;6140557;23;20169;-80
2023/04/27 01:41:46;;;;;;;5.67;4.60;;;;;;;5.96;100.00;99578.72;6139661;23;20180;-80
2023/04/27 01:44:13;;;;;;;5.07;4.30;;;;;;;5.93;100.00;99584.41;6139250;23;20193;-81
2023/04/27 01:46:40;;;;;;;4.90;4.40;;;;;;;5.89;100.00;99585.81;6139043;23;20190;-80
2023/04/27 01:49:07;;;;;;;4.77;4.37;;;;;;;5.70;100.00;99584.56;6164207;23;20208;-81
2023/04/27 01:51:33;;;;;;;4.73;4.20;;;;;;;5.55;100.00;99589.09;6164129;23;20162;-80
2023/04/27 01:54:00;;;;;;;4.80;4.33;;;;;;;5.57;100.00;99589.75;6164147;23;20224;-81
2023/04/27 01:56:27;;;;;;;5.90;4.17;;;;;;;5.53;100.00;99593.81;6163663;23;20169;-80
2023/04/27 01:58:54;;;;;;;5.60;4.27;;;;;;;5.45;100.00;99585.13;6164726;23;20257;-80
2023/04/27 02:01:21;;;;;;;4.67;4.20;;;;;;;5.40;100.00;99584.88;6188688;23;20632;-80
2023/04/27 02:03:48;;;;;;;6.53;4.60;;;;;;;5.35;100.00;99590.75;6188453;23;20170;-80
2023/04/27 02:06:15;;;;;;;5.77;4.17;;;;;;;5.35;100.00;99597.88;6163874;23;20651;-81
2023/04/27 02:08:42;;;;;;;5.83;4.40;;;;;;;5.28;100.00;99592.47;6139718;23;20261;-80
2023/04/27 02:11:09;;;;;;;5.20;4.27;;;;;;;5.30;100.00;99595.78;6139607;23;20203;-81
2023/04/27 02:13:35;;;;;;;6.33;4.33;;;;;;;5.24;100.00;99604.50;6139875;23;20166;-81
2023/04/27 02:16:03;;;;;;;5.77;5.17;;;;;;;5.23;100.00;99592.22;6139144;23;20174;-81
2023/04/27 02:18:31;;;;;;;7.00;4.47;;;;;;;5.12;100.00;99590.06;6140205;23;20202;-80
2023/04/27 02:20:58;;;;;;;5.00;4.43;;;;;;;5.07;100.00;99595.09;6139775;23;20176;-80
2023/04/27 02:23:24;;;;;;;5.00;4.50;;;;;;;5.05;100.00;99597.94;6163240;23;20232;-81
2023/04/27 02:25:51;;;;;;;5.40;4.23;;;;;;;5.04;100.00;99601.59;6164066;23;20165;-81
2023/04/27 02:28:18;;;;;;;4.50;4.10;;;;;;;4.92;100.00;99591.63;6163733;23;20702;-82
2023/04/27 02:30:45;;;;;;;4.83;4.40;;;;;;;4.89;100.00;99595.47;6139301;23;20205;-81
2023/04/27 02:33:11;;;;;;;4.90;4.20;;;;;;;4.94;100.00;99598.41;6163783;23;20197;-80
2023/04/27 02:35:38;;;;;;;4.33;3.93;;;;;;;4.89;100.00;99590.19;6139495;23;20170;-82
2023/04/27 02:38:05;;;;;;;4.57;3.67;;;;;;;4.81;100.00;99582.28;6188357;23;20257;-81
2023/04/27 02:40:35;;;;;;;4.80;4.40;;;;;;;4.78;100.00;99590.63;6141020;23;20616;-82
2023/04/27 02:43:04;;;;;;;5.43;4.30;;;;;;;4.74;100.00;99590.19;6163855;23;20172;-81
2023/04/27 02:45:35;;;;;;;4.80;4.30;;;;;;;4.69;100.00;99591.72;6188730;23;20184;-81
2023/04/27 02:48:04;;;;;;;4.77;4.33;;;;;;;4.64;100.00;99594.94;6164628;23;20170;-81
2023/04/27 02:50:32;;;;;;;5.47;4.30;;;;;;;4.59;100.00;99593.81;6164345;23;20189;-81
2023/04/27 02:53:01;;;;;;;5.20;4.70;;;;;;;4.60;100.00;99593.66;6139217;23;20174;-81
2023/04/27 02:55:28;;;;;;;5.63;4.60;;;;;;;4.56;100.00;99596.84;6140239;23;20184;-82
2023/04/27 02:57:55;;;;;;;4.83;4.27;;;;;;;4.58;100.00;99592.16;6166847;23;20620;-81
2023/04/27 03:00:22;;;;;;;5.60;4.47;;;;;;;4.56;100.00;99594.19;6167350;23;20612;-81
2023/04/27 03:02:48;;;;;;;4.80;4.23;;;;;;;4.54;100.00;99597.00;6142227;23;20170;-81
2023/04/27 03:05:15;;;;;;;6.03;4.10;;;;;;;4.50;100.00;99603.69;6167003;23;20177;-82
2023/04/27 03:07:42;;;;;;;6.40;4.50;;;;;;;4.45;100.00;99598.09;6142363;23;20205;-80
2023/04/27 03:10:09;;;;;;;5.73;4.90;;;;;;;4.41;100.00;99602.97;6142413;23;20178;-83
2023/04/27 03:12:36;;;;;;;5.93;4.43;;;;;;;4.34;100.00;99609.97;6167306;23;20173;-82
2023/04/27 03:15:03;;;;;;;6.90;4.77;;;;;;;4.28;100.00;99607.22;6142560;23;20252;-81
2023/04/27 03:17:30;;;;;;;5.13;4.70;;;;;;;4.24;100.00;99603.28;6142369;23;20224;-81
2023/04/27 03:19:56;;;;;;;5.77;5.00;;;;;;;4.21;100.00;99611.59;6141989;23;20196;-81
2023/04/27 03:22:23;;;;;;;6.57;4.90;;;;;;;4.19;100.00;99617.09;6167087;23;20257;-81
2023/04/27 03:24:50;;;;;;;6.43;5.10;;;;;;;4.19;100.00;99616.25;6119092;23;20232;-82
2023/04/27 03:27:17;;;;;;;4.87;4.37;;;;;;;4.15;100.00;99612.31;6137115;23;20182;-81
2023/04/27 03:29:43;;;;;;;5.53;5.00;;;;;;;4.10;100.00;99617.34;6112462;23;20194;-81
2023/04/27 03:32:10;;;;;;;4.73;4.33;;;;;;;4.06;100.00;99619.50;6136809;23;20216;-82
2023/04/27 03:34:37;;;;;;;5.57;4.40;;;;;;;4.03;100.00;99624.34;6137061;23;20648;-80
2023/04/27 03:37:05;;;;;;;4.97;4.40;;;;;;;4.02;100.00;99630.63;6137378;23;20166;-81
2023/04/27 03:39:35;;;;;;;4.70;4.30;;;;;;;4.03;100.00;99627.00;6137729;23;20204;-81
2023/04/27 03:42:02;;;;;;;5.63;4.50;;;;;;;3.99;100.00;99621.22;6112580;23;20170;-81
2023/04/27 03:44:33;;;;;;;5.63;4.77;;;;;;;3.98;100.00;99631.00;6113108;23;20182;-81
2023/04/27 03:47:00;;;;;;;5.17;4.53;;;;;;;4.00;100.00;99630.84;6137681;23;20253;-81
2023/04/27 03:49:27;;;;;;;5.33;4.37;;;;;;;4.04;100.00;99631.28;6113298;23;20280;-81
2023/04/27 03:51:55;;;;;;;6.50;5.07;;;;;;;4.06;100.00;99634.59;6112775;23;20171;-81
2023/04/27 03:54:21;;;;;;;5.83;5.10;;;;;;;4.09;100.00;99635.06;6112912;23;20170;-80
2023/04/27 03:56:48;;;;;;;6.07;5.00;;;;;;;4.05;100.00;99641.72;6136919;23;20249;-82
2023/04/27 03:59:15;;;;;;;6.10;5.30;;;;;;;4.11;100.00;99637.53;6136878;23;20244;-82
2023/04/27 04:01:47;;;;;;;6.17;5.03;;;;;;;4.20;100.00;99645.22;6115092;23;20166;-81
2023/04/27 04:04:14;;;;;;;7.97;7.13;;;;;;;4.29;100.00;99641.50;6136759;23;20625;-81
2023/04/27 04:06:41;;;;;;;7.60;6.50;;;;;;;4.37;100.00;99638.81;6136146;23;20653;-81
2023/04/27 04:09:11;;;;;;;8.37;5.87;;;;;;;4.38;100.00;99634.34;6135599;23;20249;-81
2023/04/27 04:11:38;;;;;;;6.23;5.73;;;;;;;4.48;100.00;99639.38;6136019;23;20170;-84
2023/04/27 04:14:07;;;;;;;6.17;5.50;;;;;;;4.63;100.00;99635.72;6112021;23;20170;-81
2023/04/27 04:16:34;;;;;;;8.53;6.00;;;;;;;4.80;100.00;99639.88;6135132;23;20257;-80
2023/04/27 04:19:01;;;;;;;7.20;5.77;;;;;;;4.98;100.00;99642.16;6110772;23;20250;-81
2023/04/27 04:21:27;;;;;;;6.57;5.50;;;;;;;5.09;100.00;99633.72;6110981;23;20620;-83
2023/04/27 04:23:55;;;;;;;8.00;5.17;;;;;;;5.25;100.00;99630.88;6110733;23;20523;-80
2023/04/27 04:26:22;;;;;;;7.33;5.40;;;;;;;5.44;100.00;99637.44;6111386;23;20770;-80
2023/04/27 04:28:49;;;;;;;6.03;5.43;;;;;;;5.71;100.00;99639.41;6110997;23;20244;-80
2023/04/27 04:31:17;;;;;;;6.30;5.20;;;;;;;6.03;100.00;99642.59;6110868;23;20178;-80
2023/04/27 04:33:43;;;;;;;8.17;5.57;;;;;;;6.31;100.00;99646.13;6135494;23;20174;-81
2023/04/27 04:36:10;;;;;;;6.67;5.40;;;;;;;6.56;100.00;99638.56;6110848;23;20640;-82
2023/04/27 04:38:37;;;;;;;7.33;5.10;;;;;;;6.84;100.00;99649.22;6111316;23;20175;-81
2023/04/27 04:41:04;;;;;;;6.03;5.27;;;;;;;7.18;100.00;99648.41;6135053;23;20256;-82
2023/04/27 04:43:32;;;;;;;7.67;4.90;;;;;;;7.52;100.00;99648.31;6135528;23;20712;-81
2023/04/27 04:46:02;;;;;;;6.67;5.00;;;;;;;7.82;100.00;99652.34;6112928;23;20173;-82
2023/04/27 04:48:29;;;;;;;5.87;4.97;;;;;;;8.12;100.00;99646.66;6134951;23;20194;-80
2023/04/27 04:50:56;;;;;;;4.90;4.00;;;;;;;8.45;100.00;99647.50;6111079;23;20278;-82
2023/04/27 04:53:22;;;;;;;6.47;4.50;;;;;;;8.71;100.00;99647.53;6134798;23;20696;-81
2023/04/27 04:55:49;;;;;;;5.23;4.50;;;;;;;9.01;100.00;99649.72;6110819;23;20216;-81
2023/04/27 04:58:16;;;;;;;6.77;4.30;;;;;;;9.32;100.00;99646.38;6110164;23;20178;-82
2023/04/27 05:00:43;;;;;;;6.97;4.67;;;;;;;9.57;100.00;99653.44;6110669;23;20213;-81
2023/04/27 05:03:09;;;;;;;4.73;4.13;;;;;;;9.87;100.00;99653.72;6133406;23;20166;-81
2023/04/27 05:05:36;;;;;;;4.67;4.27;;;;;;;10.12;100.00;99653.78;6110342;23;20170;-81
2023/04/27 05:08:03;;;;;;;7.40;4.40;;;;;;;10.40;100.00;99650.75;6134352;23;20671;-81
2023/04/27 05:10:30;;;;;;;5.97;4.07;;;;;;;10.63;100.00;99655.50;6159088;23;20169;-80
2023/04/27 05:12:56;;;;;;;5.77;4.10;;;;;;;10.82;100.00;99657.19;6134423;23;20621;-79
2023/04/27 05:15:23;;;;;;;6.77;4.57;;;;;;;10.87;99.59;99650.09;6134534;23;20257;-80
2023/04/27 05:17:50;;;;;;;5.73;3.90;;;;;;;10.93;98.13;99648.41;6157786;23;20159;-80
2023/04/27 05:20:17;;;;;;;4.77;4.37;;;;;;;10.94;96.58;99660.78;6108578;23;20178;-80
2023/04/27 05:22:43;;;;;;;8.60;5.73;;;;;;;10.96;96.03;99666.75;6134530;23;20177;-81
2023/04/27 05:25:10;;;;;;;6.60;3.90;;;;;;;10.86;95.31;99663.75;6132462;23;20293;-80
2023/04/27 05:27:37;;;;;;;5.50;4.30;;;;;;;10.61;95.03;99663.75;6159510;23;20742;-82
2023/04/27 05:30:04;;;;;;;4.63;3.90;;;;;;;10.61;95.72;99666.44;6158934;23;20279;-80
2023/04/27 05:32:32;;;;;;;4.17;3.80;;;;;;;10.46;95.79;99668.59;6133980;23;20171;-80
2023/04/27 05:34:59;;;;;;;4.93;4.10;;;;;;;10.37;96.51;99672.59;6159008;23;20181;-81
2023/04/27 05:37:26;;;;;;;4.33;3.90;;;;;;;10.23;97.00;99671.03;6158890;23;20249;-80
2023/04/27 05:39:53;;;;;;;4.77;4.30;;;;;;;10.21;97.67;99659.72;6134840;23;20257;-80
2023/04/27 05:42:19;;;;;;;5.03;3.83;;;;;;;10.18;97.91;99662.81;6134411;23;20277;-81
2023/04/27 05:44:46;;;;;;;5.27;4.07;;;;;;;10.18;98.01;99670.84;6158640;23;20265;-80
2023/04/27 05:47:13;;;;;;;4.83;3.90;;;;;;;10.23;97.92;99673.72;6134342;23;20225;-80
2023/04/27 05:49:39;;;;;;;5.97;3.97;;;;;;;10.47;97.99;99676.44;6158748;23;20189;-81
2023/04/27 05:52:06;;;;;;;6.33;4.27;;;;;;;10.88;96.17;99683.91;6158519;23;20178;-80
2023/04/27 05:54:33;;;;;;;6.73;4.00;;;;;;;11.25;91.82;99673.22;6158609;23;20177;-80
2023/04/27 05:56:59;;;;;;;5.57;4.03;;;;;;;11.68;91.09;99675.84;6158676;23;20630;-79
2023/04/27 05:59:28;;;;;;;7.57;4.53;;;;;;;12.22;89.15;99680.31;6158636;23;20181;-80
2023/04/27 06:01:55;;;;;;;5.70;3.80;;;;;;;12.71;83.76;99673.75;6134841;23;20174;-81
2023/04/27 06:04:22;;;;;;;5.23;3.47;;;;;;;13.12;78.59;99675.53;6159069;23;20175;-81
2023/04/27 06:06:49;;;;;;;4.90;3.57;;;;;;;13.52;76.36;99672.94;6134564;23;20198;-80
2023/04/27 06:09:16;;;;;;;4.73;4.03;;;;;;;14.04;73.90;99682.56;6134167;23;20194;-81
2023/04/27 06:11:43;;;;;;;4.57;3.73;;;;;;;14.25;72.04;99685.66;6182990;23;20285;-81
2023/04/27 06:14:10;;;;;;;5.10;3.40;;;;;;;14.34;70.16;99679.63;6158541;23;20178;-81
2023/04/27 06:16:37;;;;;;;4.83;3.63;;;;;;;14.31;69.09;99682.00;6158354;23;20163;-81
2023/04/27 06:19:03;;;;;;;3.80;3.40;;;;;;;14.41;68.32;99685.72;6133919;23;20257;-81
2023/04/27 06:21:32;;;;;;;4.90;4.00;;;;;;;14.51;68.31;99685.09;6134105;23;20259;-80
2023/04/27 06:23:59;;;;;;;8.13;3.93;;;;;;;14.44;68.51;99687.09;6158434;23;20192;-82
2023/04/27 06:26:27;;;;;;;5.67;4.00;;;;;;;14.28;66.61;99695.94;6134071;23;20207;-81
2023/04/27 06:28:54;;;;;;;4.53;3.87;;;;;;;14.44;66.04;99697.88;6158158;23;20207;-81
2023/04/27 06:31:21;;;;;;;5.10;3.20;;;;;;;14.52;61.66;99698.31;6183053;23;20228;-81
2023/04/27 06:33:48;;;;;;;5.53;3.60;;;;;;;14.56;60.24;99701.31;6133234;23;20176;-81
2023/04/27 06:36:15;;;;;;;5.87;3.60;;;;;;;14.61;60.53;99690.63;6134015;23;20177;-82
2023/04/27 06:38:42;;;;;;;5.87;3.30;;;;;;;14.64;59.01;99695.56;6182652;23;20634;-81
2023/04/27 06:41:09;;;;;;;6.13;3.33;;;;;;;14.66;57.55;99698.81;6158643;23;20179;-80
2023/04/27 06:43:36;;;;;;;3.90;3.03;;;;;;;14.71;54.49;99701.59;6134193;23;20742;-81
2023/04/27 06:46:05;;;;;;;4.33;2.80;;;;;;;14.01;52.22;99701.91;6158491;23;20252;-80
2023/04/27 06:48:31;;;;;;;3.77;2.67;;;;;;;14.34;51.06;99698.50;6133413;23;20210;-80
2023/04/27 06:50:58;;;;;;;4.33;2.63;;;;;;;14.59;49.65;99702.75;6133762;23;20227;-80
2023/04/27 06:53:25;;;;;;;4.57;2.60;;;;;;;14.95;49.18;99704.94;6134025;23;20280;-80
2023/04/27 06:55:52;;;;;;;4.27;3.10;;;;;;;15.14;50.28;99705.50;6158362;23;20175;-81
2023/04/27 06:58:19;;;;;;;3.97;2.70;;;;;;;15.17;50.36;99699.59;6133765;23;20198;-80
2023/04/27 07:00:45;;;;;;;3.80;3.10;;;;;;;14.75;50.74;99700.03;6158177;23;20188;-80
2023/04/27 07:03:13;;;;;;;4.73;3.30;;;;;;;14.48;52.79;99702.56;6132621;23;20199;-81
2023/04/27 07:05:40;;;;;;;4.37;3.33;;;;;;;15.01;52.82;99693.19;6157954;23;20626;-82
2023/04/27 07:08:07;;;;;;;4.63;3.03;;;;;;;15.46;52.19;99690.31;6157731;23;20203;-81
2023/04/27 07:10:34;;;;;;;3.40;3.07;;;;;;;15.51;50.28;99685.00;6182342;23;20201;-80
2023/04/27 07:13:01;;;;;;;5.10;3.40;;;;;;;15.73;49.94;99687.69;6182729;23;20165;-81
2023/04/27 07:15:29;;;;;;;7.63;3.83;;;;;;;15.96;49.60;99694.75;6157709;23;20169;-81
2023/04/27 07:17:56;;;;;;;5.83;3.33;;;;;;;16.22;48.46;99693.94;6157923;23;20179;-81
2023/04/27 07:20:23;;;;;;;4.00;3.50;;;;;;;16.32;47.83;99701.34;6133389;23;20232;-81
2023/04/27 07:22:50;;;;;;;4.70;3.20;;;;;;;16.22;46.34;99693.94;6182284;23;20248;-82
2023/04/27 07:25:16;;;;;;;3.73;3.40;;;;;;;16.05;46.78;99693.22;6157882;23;20205;-81
2023/04/27 07:27:44;;;;;;;4.40;3.43;;;;;;;16.62;47.07;99686.25;6157641;23;20221;-81
2023/04/27 07:30:12;;;;;;;5.20;3.90;;;;;;;16.85;47.21;99684.25;6157514;23;20170;-80
2023/04/27 07:32:40;;;;;;;4.23;3.83;;;;;;;16.98;47.65;99678.41;6158028;23;20194;-80
2023/04/27 07:35:10;;;;;;;5.83;3.80;;;;;;;17.01;47.66;99686.00;6158044;23;20173;-81
2023/04/27 07:37:37;;;;;;;4.60;3.50;;;;;;;17.33;47.18;99689.47;6158688;23;20182;-81
2023/04/27 07:40:15;;;;;;;6.17;3.43;;;;;;;17.64;46.16;99678.84;6133337;23;20202;-80
2023/04/27 07:42:45;;;;;;;3.93;3.63;;;;;;;17.75;45.84;99684.00;6136622;23;20269;-80
2023/04/27 07:45:12;;;;;;;3.67;3.00;;;;;;;16.35;46.52;99673.78;6135209;23;20174;-81
2023/04/27 07:47:39;;;;;;;4.63;3.83;;;;;;;16.94;45.77;99678.09;6160035;23;20167;-82
2023/04/27 07:50:07;;;;;;;4.73;3.00;;;;;;;17.11;44.60;99675.25;6159523;23;20198;-81
2023/04/27 07:52:33;;;;;;;3.73;3.00;;;;;;;17.34;44.10;99688.41;6134920;23;20202;-81
2023/04/27 07:55:00;;;;;;;5.17;2.90;;;;;;;17.40;41.36;99690.06;6135433;23;20209;-81
2023/04/27 07:57:27;;;;;;;3.00;2.70;;;;;;;17.34;41.32;99690.28;6159654;23;20182;-81
2023/04/27 07:59:54;;;;;;;5.47;2.77;;;;;;;17.73;41.42;99696.22;6184487;23;20174;-81
2023/04/27 08:02:21;;;;;;;3.63;2.47;;;;;;;17.39;41.06;99693.03;6159764;23;20257;-81
2023/04/27 08:04:48;;;;;;;3.57;2.80;;;;;;;17.71;41.58;99693.75;6159265;23;20252;-81
2023/04/27 08:07:16;;;;;;;3.27;2.60;;;;;;;17.93;39.63;99690.84;6159555;23;20237;-82
2023/04/27 08:09:43;;;;;;;3.87;2.90;;;;;;;18.10;39.05;99685.22;6135487;23;20255;-80
2023/04/27 08:12:10;;;;;;;2.93;2.47;;;;;;;17.78;39.68;99682.66;6184478;23;20226;-81
2023/04/27 08:14:36;;;;;;;3.37;2.70;;;;;;;18.32;39.14;99688.53;6159583;23;20246;-81
2023/04/27 08:17:03;;;;;;;2.73;2.47;;;;;;;18.53;37.58;99692.06;6135251;23;20198;-81
2023/04/27 08:19:30;;;;;;;5.50;3.10;;;;;;;18.82;38.66;99693.19;6159391;23;20226;-81
2023/04/27 08:21:56;;;;;;;4.40;2.50;;;;;;;19.09;38.32;99687.47;6159614;23;20217;-81
2023/04/27 08:24:23;;;;;;;4.10;2.27;;;;;;;19.04;37.30;99684.75;6158917;23;20265;-81
2023/04/27 08:26:50;;;;;;;4.70;2.50;;;;;;;18.92;36.30;99682.34;6159655;23;20170;-81
2023/04/27 08:29:17;;;;;;;2.80;2.40;;;;;;;19.23;35.43;99688.53;6159422;23;20245;-81
2023/04/27 08:31:56;;;;;;;3.87;2.50;;;;;;;19.34;34.43;99682.81;6161859;23;20170;-81
2023/04/27 08:34:23;;;;;;;2.97;2.40;;;;;;;19.35;35.02;99687.16;6134670;23;20179;-81
2023/04/27 08:36:50;;;;;;;4.00;2.37;;;;;;;18.94;34.59;99684.78;6159823;23;20162;-81
2023/04/27 08:39:17;;;;;;;3.30;2.27;;;;;;;19.42;35.38;99689.56;6159296;23;20170;-80
2023/04/27 08:41:44;;;;;;;4.77;2.43;;;;;;;19.83;34.95;99689.50;6135148;23;20178;-81
2023/04/27 08:44:11;;;;;;;3.57;2.40;;;;;;;19.90;34.11;99682.66;6158835;23;20198;-81
2023/04/27 08:46:38;;;;;;;4.47;2.30;;;;;;;19.87;34.13;99687.84;6135165;23;20222;-81
2023/04/27 08:49:06;;;;;;;4.17;3.00;;;;;;;19.91;34.38;99684.28;6183381;23;20188;-81
2023/04/27 08:51:34;;;;;;;3.37;2.60;;;;;;;19.72;34.76;99684.09;6159454;23;20622;-81
2023/04/27 08:54:01;;;;;;;2.77;2.53;;;;;;;19.70;34.97;99686.25;6158696;23;20170;-80
2023/04/27 08:56:29;;;;;;;3.13;2.70;;;;;;;19.94;34.91;99685.59;6159063;23;20167;-81
2023/04/27 08:58:57;;;;;;;5.37;2.90;;;;;;;19.96;34.57;99686.97;6158932;23;20643;-81
2023/04/27 09:01:26;;;;;;;5.00;2.90;;;;;;;20.20;34.58;99684.41;6159144;23;20163;-81
2023/04/27 09:03:57;;;;;;;3.90;3.10;;;;;;;20.27;33.98;99679.44;6135223;23;20171;-82
2023/04/27 09:06:31;;;;;;;5.40;3.00;;;;;;;20.20;34.24;99677.03;6184990;23;20211;-81
2023/04/27 09:08:59;;;;;;;4.53;3.03;;;;;;;20.21;34.84;99677.84;6158670;23;20191;-81
2023/04/27 09:11:30;;;;;;;5.70;2.63;;;;;;;20.35;35.96;99669.88;6134260;23;20607;-81
2023/04/27 09:13:58;;;;;;;4.93;3.23;;;;;;;20.17;34.40;99679.50;6184863;23;20157;-82
2023/04/27 09:16:27;;;;;;;3.43;2.93;;;;;;;20.04;34.97;99672.78;6134152;23;20168;-82
2023/04/27 09:18:56;;;;;;;6.57;3.10;;;;;;;20.33;35.39;99678.34;6158955;23;20221;-81
2023/04/27 09:21:23;;;;;;;4.00;2.87;;;;;;;20.45;35.58;99676.09;6158383;23;20172;-82
2023/04/27 09:23:50;;;;;;;3.40;3.07;;;;;;;20.44;34.66;99674.47;6177279;23;20242;-82
2023/04/27 09:26:22;;;;;;;4.13;3.10;;;;;;;20.37;34.07;99676.69;6133803;23;20173;-81
2023/04/27 09:28:51;;;;;;;4.40;3.00;;;;;;;20.54;35.08;99674.38;6134094;23;20258;-82
2023/04/27 09:31:18;;;;;;;5.07;2.93;;;;;;;20.88;33.79;99671.66;6133852;23;20164;-82
2023/04/27 09:33:46;;;;;;;6.83;3.03;;;;;;;21.15;34.13;99662.16;6133584;23;20198;-82
2023/04/27 09:36:13;;;;;;;4.87;3.10;;;;;;;21.15;34.63;99668.44;6133896;23;20196;-82
2023/04/27 09:38:40;;;;;;;4.07;3.00;;;;;;;21.38;34.68;99659.47;6133666;23;20179;-82
2023/04/27 09:41:07;;;;;;;4.10;3.30;;;;;;;21.55;33.86;99667.19;6109655;23;20197;-82
2023/04/27 09:43:33;;;;;;;4.90;3.17;;;;;;;21.20;34.38;99659.41;6133225;23;20176;-82
2023/04/27 09:46:03;;;;;;;5.03;3.30;;;;;;;21.17;33.65;99657.25;6134387;23;20170;-82
2023/04/27 09:48:30;;;;;;;3.83;2.90;;;;;;;21.21;34.41;99666.47;6134040;23;20212;-81
2023/04/27 09:50:56;;;;;;;7.47;3.40;;;;;;;20.44;35.03;99655.41;6184153;23;20197;-81
2023/04/27 09:53:44;;;;;;;3.80;3.47;;;;;;;19.66;35.65;99651.75;6109627;23;20169;-82
2023/04/27 09:56:29;;;;;;;3.73;3.33;;;;;;;19.50;36.77;99651.03;6158599;23;20152;-81
2023/04/27 09:59:08;;;;;;;3.97;3.10;;;;;;;18.59;36.00;99655.75;6158314;23;20202;-82
2023/04/27 10:01:49;;;;;;;4.93;3.30;;;;;;;19.81;35.74;99651.69;6158353;23;20181;-81
2023/04/27 10:04:38;;;;;;;4.27;3.13;;;;;;;20.01;35.46;99650.78;6133922;23;20163;-81
2023/04/27 10:07:11;;;;;;;5.07;3.10;;;;;;;19.80;35.79;99650.06;6158352;23;20197;-80
2023/04/27 10:09:50;;;;;;;3.73;3.27;;;;;;;19.62;36.27;99642.53;6134405;23;20175;-81
2023/04/27 10:12:17;;;;;;;3.90;3.43;;;;;;;19.48;36.33;99639.59;6159057;23;20157;-81
2023/04/27 10:14:47;;;;;;;5.90;3.20;;;;;;;19.67;36.15;99639.81;6157853;23;20503;-81
2023/04/27 10:17:14;;;;;;;6.33;3.17;;;;;;;19.74;34.91;99637.56;6133956;23;20202;-81
2023/04/27 10:19:53;;;;;;;4.37;2.80;;;;;;;17.84;36.53;99636.34;6133476;23;20163;-81
2023/04/27 10:22:25;;;;;;;3.03;2.73;;;;;;;18.85;35.67;99639.16;6159946;23;20375;-83
2023/04/27 10:24:51;;;;;;;4.67;3.53;;;;;;;18.44;35.98;99635.63;6134054;23;20202;-81
2023/04/27 10:27:21;;;;;;;6.50;3.40;;;;;;;19.11;35.40;99636.44;6134071;23;20162;-80
2023/04/27 10:29:48;;;;;;;5.23;3.20;;;;;;;18.79;35.43;99634.03;6158542;23;20182;-81
2023/04/27 10:32:23;;;;;;;6.93;3.10;;;;;;;18.27;35.75;99628.84;6133463;23;20660;-81
2023/04/27 10:35:01;;;;;;;4.63;3.57;;;;;;;19.00;35.67;99626.66;6133690;23;20170;-81
2023/04/27 10:37:38;;;;;;;5.40;3.50;;;;;;;19.00;35.78;99618.50;6109866;23;20177;-81
2023/04/27 10:40:07;;;;;;;3.60;3.00;;;;;;;19.24;36.61;99617.66;6109781;23;20225;-81
2023/04/27 10:42:34;;;;;;;5.10;3.13;;;;;;;19.79;36.32;99623.97;6133670;23;20202;-81
2023/04/27 10:45:02;;;;;;;4.53;3.10;;;;;;;18.68;36.57;99616.94;6110088;23;20180;-81
2023/04/27 10:47:36;;;;;;;3.77;3.33;;;;;;;19.40;35.82;99613.00;6133714;23;20696;-80
2023/04/27 10:50:04;;;;;;;6.17;3.60;;;;;;;19.38;35.69;99609.72;6108955;23;20201;-81
2023/04/27 10:52:31;;;;;;;5.27;3.50;;;;;;;19.21;35.65;99614.69;6109615;23;20174;-80
2023/04/27 10:55:11;;;;;;;4.40;3.50;;;;;;;19.12;35.87;99611.72;6109235;23;20253;-81
2023/04/27 10:58:04;;;;;;;3.20;2.90;;;;;;;19.49;35.98;99605.09;6109223;23;20166;-81
2023/04/27 11:00:38;;;;;;;4.10;3.43;;;;;;;17.59;38.15;99603.75;6106958;23;20174;-81
2023/04/27 11:03:24;;;;;;;5.17;3.20;;;;;;;18.33;38.46;99609.63;6109290;23;20194;-81
2023/04/27 11:06:04;;;;;;;5.07;3.27;;;;;;;19.42;36.67;99607.25;6133375;23;20166;-81
2023/04/27 11:08:35;;;;;;;5.13;3.27;;;;;;;19.31;35.92;99601.88;6108803;23;20170;-81
2023/04/27 11:11:03;;;;;;;4.43;3.30;;;;;;;18.81;36.90;99608.25;6109872;23;20166;-81
2023/04/27 11:13:32;;;;;;;4.47;3.50;;;;;;;19.06;36.25;99615.53;6133308;23;20166;-81
2023/04/27 11:15:59;;;;;;;5.37;3.30;;;;;;;19.66;35.65;99616.44;6158302;23;20213;-81
2023/04/27 11:18:29;;;;;;;4.23;3.10;;;;;;;20.67;33.98;99613.03;6135483;23;20170;-81
2023/04/27 11:21:08;;;;;;;5.13;3.20;;;;;;;20.90;34.76;99608.75;6135963;23;20742;-81
2023/04/27 11:23:38;;;;;;;6.27;3.10;;;;;;;19.94;34.18;99613.00;6138367;23;20286;-81
2023/04/27 11:26:14;;;;;;;4.10;3.13;;;;;;;19.98;33.57;99605.09;6160509;23;20159;-81
2023/04/27 11:28:42;;;;;;;5.00;3.43;;;;;;;18.85;34.90;99605.78;6159977;23;20147;-81
2023/04/27 11:31:08;;;;;;;4.47;3.17;;;;;;;19.16;34.58;99601.13;6160085;23;20175;-81
2023/04/27 11:33:35;;;;;;;4.43;3.20;;;;;;;19.67;34.82;99610.72;6135968;23;20225;-82
2023/04/27 11:36:02;;;;;;;3.83;3.13;;;;;;;18.83;34.52;99608.78;6135415;23;20178;-81
2023/04/27 11:38:33;;;;;;;5.33;3.17;;;;;;;19.57;35.60;99602.63;6159966;23;20713;-82